createdAt,value
2019-05-14T00:00:00.628Z,25.90
2019-05-14T00:02:32.549Z,26.00
2019-05-14T00:05:04.760Z,26.00
2019-05-14T00:07:36.983Z,26.00
2019-05-14T00:10:11.845Z,26.00
2019-05-14T00:12:44.130Z,26.10
2019-05-14T00:15:16.860Z,26.10
2019-05-14T00:17:48.766Z,26.20
2019-05-14T00:20:22.597Z,26.20
2019-05-14T00:22:54.588Z,26.20
2019-05-14T00:25:26.620Z,26.20
2019-05-14T00:28:01.163Z,26.20
2019-05-14T00:30:32.875Z,26.20
2019-05-14T00:33:05.024Z,26.20
2019-05-14T00:35:36.908Z,26.20
2019-05-14T00:38:09.222Z,26.30
2019-05-14T00:40:41.971Z,26.30
2019-05-14T00:43:14.158Z,26.40
2019-05-14T00:45:46.675Z,26.40
2019-05-14T00:48:19.294Z,26.40
2019-05-14T00:53:45.464Z,26.50
2019-05-14T00:56:17.893Z,26.60
2019-05-14T00:58:52.070Z,26.60
2019-05-14T01:01:25.217Z,26.70
2019-05-14T01:03:57.145Z,26.70
2019-05-14T01:06:33.316Z,26.70
2019-05-14T01:09:06.480Z,26.80
2019-05-14T01:11:38.685Z,26.70
2019-05-14T01:14:12.215Z,26.70
2019-05-14T01:16:44.240Z,26.80
2019-05-14T01:19:16.316Z,26.70
2019-05-14T01:21:48.251Z,26.80
2019-05-14T01:24:21.598Z,26.80
2019-05-14T01:26:54.221Z,26.80
2019-05-14T01:29:26.140Z,26.80
2019-05-14T01:31:58.489Z,26.80
2019-05-14T01:34:32.478Z,26.80
2019-05-14T01:37:04.067Z,26.80
2019-05-14T01:39:36.217Z,26.80
2019-05-14T01:42:12.541Z,26.80
2019-05-14T01:44:44.557Z,26.90
2019-05-14T01:47:16.745Z,26.90
2019-05-14T01:49:48.563Z,26.90
2019-05-14T01:52:23.017Z,26.90
2019-05-14T01:54:54.465Z,26.90
2019-05-14T01:57:32.662Z,26.90
2019-05-14T02:00:06.143Z,26.90
2019-05-14T02:02:41.579Z,26.80
2019-05-14T02:05:13.621Z,26.90
2019-05-14T02:08:07.348Z,26.90
2019-05-14T02:10:41.813Z,26.90
2019-05-14T02:13:13.661Z,27.00
2019-05-14T02:15:45.996Z,27.00
2019-05-14T02:18:18.173Z,27.00
2019-05-14T02:20:52.108Z,27.10
2019-05-14T02:23:24.682Z,27.10
2019-05-14T02:25:57.991Z,27.20
2019-05-14T02:28:31.446Z,27.30
2019-05-14T02:31:04.164Z,27.40
2019-05-14T02:33:39.752Z,27.50
2019-05-14T02:36:19.204Z,27.60
2019-05-14T02:38:49.589Z,27.70
2019-05-14T02:41:22.486Z,27.80
2019-05-14T02:43:54.677Z,27.90
2019-05-14T02:46:51.053Z,28.00
2019-05-14T02:49:42.240Z,28.10
2019-05-14T02:52:14.540Z,28.20
2019-05-14T02:54:49.511Z,28.20
2019-05-14T02:57:22.176Z,28.30
2019-05-14T03:00:19.129Z,28.30
2019-05-14T03:02:50.736Z,28.40
2019-05-14T03:05:23.154Z,28.40
2019-05-14T03:08:15.791Z,28.40
2019-05-14T03:10:50.198Z,28.50
2019-05-14T03:13:22.477Z,28.50
2019-05-14T03:15:54.876Z,28.60
2019-05-14T03:18:29.626Z,28.70
2019-05-14T03:21:01.306Z,28.80
2019-05-14T03:23:33.732Z,28.80
2019-05-14T03:26:09.354Z,28.90
2019-05-14T03:28:40.496Z,28.90
2019-05-14T03:31:13.594Z,28.90
2019-05-14T03:34:05.030Z,28.90
2019-05-14T03:36:42.379Z,28.90
2019-05-14T03:39:12.127Z,29.00
2019-05-14T03:41:44.380Z,29.00
2019-05-14T03:44:19.749Z,29.00
2019-05-14T03:46:55.172Z,28.90
2019-05-14T03:49:24.933Z,29.00
2019-05-14T03:52:03.167Z,29.00
2019-05-14T03:54:42.568Z,29.00
2019-05-14T03:57:14.869Z,29.10
2019-05-14T03:59:49.872Z,29.20
2019-05-14T04:02:21.942Z,29.30
2019-05-14T04:04:54.295Z,29.30
2019-05-14T04:07:30.423Z,29.30
2019-05-14T04:10:03.814Z,29.40
2019-05-14T04:12:59.879Z,29.50
2019-05-14T04:15:53.371Z,29.60
2019-05-14T04:18:29.443Z,29.80
2019-05-14T04:21:02.525Z,30.00
2019-05-14T04:23:39.692Z,30.20
2019-05-14T04:26:14.573Z,30.40
2019-05-14T04:28:49.769Z,30.50
2019-05-14T04:31:31.531Z,30.70
2019-05-14T04:34:05.877Z,30.80
2019-05-14T04:36:39.357Z,31.00
2019-05-14T04:39:12.732Z,31.00
2019-05-14T04:41:45.641Z,31.10
2019-05-14T04:44:19.261Z,31.10
2019-05-14T04:46:52.018Z,31.10
2019-05-14T04:49:43.035Z,31.20
2019-05-14T04:52:15.976Z,31.30
2019-05-14T04:54:49.947Z,31.40
2019-05-14T04:57:25.465Z,31.40
2019-05-14T04:59:59.858Z,31.40
2019-05-14T05:02:30.963Z,31.40
2019-05-14T05:05:09.059Z,31.40
2019-05-14T05:07:40.872Z,31.40
2019-05-14T05:10:29.530Z,31.60
2019-05-14T05:13:00.316Z,31.70
2019-05-14T05:15:32.503Z,31.90
2019-05-14T05:18:05.102Z,32.10
2019-05-14T05:20:58.352Z,32.30
2019-05-14T05:23:30.332Z,32.50
2019-05-14T05:26:03.078Z,32.70
2019-05-14T05:28:35.034Z,32.70
2019-05-14T05:31:09.243Z,32.70
2019-05-14T05:33:48.926Z,32.70
2019-05-14T05:36:22.149Z,32.70
2019-05-14T05:38:54.177Z,32.70
2019-05-14T05:41:28.237Z,32.80
2019-05-14T05:44:00.294Z,32.80
2019-05-14T05:46:33.108Z,32.90
2019-05-14T05:49:07.898Z,33.10
2019-05-14T05:51:39.491Z,33.10
2019-05-14T05:54:11.544Z,33.00
2019-05-14T05:56:43.677Z,33.00
2019-05-14T05:59:18.909Z,33.00
2019-05-14T06:01:54.205Z,33.00
2019-05-14T06:04:24.952Z,33.00
2019-05-14T06:06:59.023Z,33.00
2019-05-14T06:09:30.613Z,32.90
2019-05-14T06:12:05.190Z,32.80
2019-05-14T06:14:48.551Z,32.70
2019-05-14T06:17:21.074Z,32.70
2019-05-14T06:19:53.160Z,32.70
2019-05-14T06:22:25.394Z,32.70
2019-05-14T06:25:00.995Z,32.70
2019-05-14T06:27:33.074Z,32.70
2019-05-14T06:30:09.093Z,32.80
2019-05-14T06:32:40.665Z,32.80
2019-05-14T06:35:13.240Z,32.80
2019-05-14T06:37:45.947Z,32.80
2019-05-14T06:40:19.326Z,32.90
2019-05-14T06:42:51.924Z,33.00
2019-05-14T06:45:38.230Z,33.00
2019-05-14T06:48:09.619Z,33.00
2019-05-14T06:50:51.980Z,33.10
2019-05-14T06:53:34.000Z,33.10
2019-05-14T06:56:09.128Z,33.00
2019-05-14T06:58:44.077Z,32.90
2019-05-14T07:01:18.541Z,32.80
2019-05-14T07:03:50.524Z,32.60
2019-05-14T07:06:23.661Z,32.50
2019-05-14T07:08:55.988Z,32.40
2019-05-14T07:11:35.674Z,32.30
2019-05-14T07:14:11.190Z,32.30
2019-05-14T07:16:42.548Z,32.20
2019-05-14T07:19:19.064Z,32.30
2019-05-14T07:21:50.868Z,32.50
2019-05-14T07:24:29.689Z,32.70
2019-05-14T07:27:01.931Z,32.80
2019-05-14T07:29:34.148Z,32.90
2019-05-14T07:32:08.897Z,32.90
2019-05-14T07:34:40.521Z,33.00
2019-05-14T07:37:44.618Z,33.00
2019-05-14T07:40:19.188Z,33.10
2019-05-14T07:42:51.562Z,33.10
2019-05-14T07:45:24.301Z,33.10
2019-05-14T07:47:58.303Z,33.00
2019-05-14T07:50:30.660Z,32.90
2019-05-14T07:53:03.308Z,32.80
2019-05-14T07:55:43.959Z,32.70
2019-05-14T07:58:19.260Z,32.60
2019-05-14T08:00:51.252Z,32.60
2019-05-14T08:03:23.298Z,32.50
2019-05-14T08:05:55.944Z,32.50
2019-05-14T08:08:29.234Z,32.50
2019-05-14T08:11:01.880Z,32.40
2019-05-14T08:13:34.595Z,32.40
2019-05-14T08:16:08.944Z,32.20
2019-05-14T08:18:41.290Z,32.20
2019-05-14T08:21:14.564Z,32.10
2019-05-14T08:23:48.162Z,32.00
2019-05-14T08:26:21.607Z,31.90
2019-05-14T08:28:53.670Z,31.80
2019-05-14T08:31:25.789Z,31.80
2019-05-14T08:33:59.173Z,31.70
2019-05-14T08:36:31.358Z,31.70
2019-05-14T08:39:03.767Z,31.70
2019-05-14T08:41:38.158Z,31.70
2019-05-14T08:44:09.528Z,31.70
2019-05-14T08:46:44.981Z,31.60
2019-05-14T08:49:39.187Z,31.70
2019-05-14T08:52:04.272Z,31.70
2019-05-14T08:54:49.033Z,31.60
2019-05-14T08:57:20.635Z,31.60
2019-05-14T08:59:52.827Z,31.50
2019-05-14T09:02:25.379Z,31.40
2019-05-14T09:05:03.767Z,31.40
2019-05-14T09:07:45.092Z,31.30
2019-05-14T09:10:19.269Z,31.30
2019-05-14T09:12:51.020Z,31.20
2019-05-14T09:15:23.538Z,31.20
2019-05-14T09:17:58.661Z,31.10
2019-05-14T09:20:31.484Z,31.10
2019-05-14T09:23:05.160Z,31.00
2019-05-14T09:25:47.202Z,30.90
2019-05-14T09:28:13.928Z,30.90
2019-05-14T09:30:55.396Z,30.90
2019-05-14T09:33:29.597Z,30.90
2019-05-14T09:36:14.797Z,30.90
2019-05-14T09:38:35.095Z,30.90
2019-05-14T09:41:14.758Z,30.90
2019-05-14T09:43:41.420Z,30.90
2019-05-14T09:46:13.646Z,30.90
2019-05-14T09:48:48.380Z,31.00
2019-05-14T09:51:19.999Z,31.20
2019-05-14T09:53:51.764Z,31.20
2019-05-14T09:56:29.135Z,31.30
2019-05-14T09:59:05.457Z,31.30
2019-05-14T10:01:39.510Z,31.40
2019-05-14T10:04:11.635Z,31.50
2019-05-14T10:06:44.066Z,31.60
2019-05-14T10:09:22.404Z,31.70
2019-05-14T10:11:53.763Z,31.60
2019-05-14T10:14:25.713Z,31.50
2019-05-14T10:16:59.419Z,31.40
2019-05-14T10:19:32.695Z,31.30
2019-05-14T10:22:05.274Z,31.20
2019-05-14T10:24:38.625Z,31.10
2019-05-14T10:27:11.009Z,30.90
2019-05-14T10:29:43.233Z,30.70
2019-05-14T10:32:23.958Z,30.50
2019-05-14T10:34:55.632Z,30.40
2019-05-14T10:37:28.855Z,30.20
2019-05-14T10:40:04.191Z,30.10
2019-05-14T10:42:36.170Z,30.00
2019-05-14T10:45:18.712Z,30.00
2019-05-14T10:47:58.467Z,29.90
2019-05-14T10:50:29.665Z,29.90
2019-05-14T10:53:01.737Z,29.90
2019-05-14T10:55:33.744Z,29.90
2019-05-14T10:58:24.992Z,29.90
2019-05-14T11:00:58.844Z,29.70
2019-05-14T11:03:31.783Z,29.50
2019-05-14T11:06:03.847Z,29.40
2019-05-14T11:08:38.465Z,29.30
2019-05-14T11:11:10.702Z,29.20
2019-05-14T11:13:43.387Z,29.10
2019-05-14T11:16:15.566Z,29.00
2019-05-14T11:18:49.796Z,28.90
2019-05-14T11:21:26.532Z,28.90
2019-05-14T11:23:58.352Z,28.90
2019-05-14T11:26:29.757Z,28.90
2019-05-14T11:29:01.820Z,28.90
2019-05-14T11:31:34.453Z,28.80
2019-05-14T11:34:08.267Z,28.80
2019-05-14T11:36:40.368Z,28.80
2019-05-14T11:39:12.920Z,28.80
2019-05-14T11:42:04.203Z,28.80
2019-05-14T11:44:38.184Z,28.80
2019-05-14T11:47:29.384Z,28.80
2019-05-14T11:50:01.942Z,28.70
2019-05-14T11:52:33.875Z,28.70
2019-05-14T11:55:25.185Z,28.60
2019-05-14T11:57:59.037Z,28.60
2019-05-14T12:00:31.691Z,28.50
2019-05-14T12:03:03.712Z,28.40
2019-05-14T12:05:38.667Z,28.40
2019-05-14T12:08:19.997Z,28.30
2019-05-14T12:10:52.067Z,28.30
2019-05-14T12:13:32.087Z,28.10
2019-05-14T12:16:01.755Z,28.10
2019-05-14T12:18:34.187Z,28.10
2019-05-14T12:21:08.951Z,28.10
2019-05-14T12:23:40.068Z,28.00
2019-05-14T12:26:12.387Z,28.00
2019-05-14T12:28:44.855Z,28.00
2019-05-14T12:31:38.369Z,28.00
2019-05-14T12:34:10.330Z,27.90
2019-05-14T12:36:42.446Z,27.90
2019-05-14T12:39:14.792Z,27.90
2019-05-14T12:41:48.866Z,27.90
2019-05-14T12:44:20.625Z,27.80
2019-05-14T12:46:52.981Z,27.90
2019-05-14T12:49:45.394Z,27.80
2019-05-14T12:52:25.223Z,27.80
2019-05-14T12:54:51.134Z,27.80
2019-05-14T12:57:23.424Z,27.80
2019-05-14T12:59:58.106Z,27.80
2019-05-14T13:02:29.807Z,27.80
2019-05-14T13:05:02.241Z,27.80
2019-05-14T13:07:34.282Z,27.80
2019-05-14T13:10:09.135Z,27.80
2019-05-14T13:12:41.452Z,27.80
2019-05-14T13:15:15.118Z,27.80
2019-05-14T13:17:48.378Z,27.90
2019-05-14T13:20:21.460Z,27.80
2019-05-14T13:22:53.394Z,27.80
2019-05-14T13:25:25.727Z,27.80
2019-05-14T13:27:59.443Z,27.80
2019-05-14T13:30:31.553Z,27.80
2019-05-14T13:33:11.287Z,27.80
2019-05-14T13:35:44.715Z,27.80
2019-05-14T13:38:17.021Z,27.80
2019-05-14T13:40:49.433Z,27.80
2019-05-14T13:43:21.654Z,27.80
2019-05-14T13:45:54.252Z,27.80
2019-05-14T13:48:29.332Z,27.70
2019-05-14T13:51:00.907Z,27.70
2019-05-14T13:53:46.367Z,27.60
2019-05-14T13:56:19.003Z,27.60
2019-05-14T13:58:51.581Z,27.60
2019-05-14T14:01:23.787Z,27.60
2019-05-14T14:04:06.945Z,27.60
2019-05-14T14:06:29.800Z,27.60
2019-05-14T14:09:01.924Z,27.60
2019-05-14T14:11:34.038Z,27.60
2019-05-14T14:14:08.796Z,27.50
2019-05-14T14:16:40.009Z,27.50
2019-05-14T14:19:12.400Z,27.50
2019-05-14T14:21:44.559Z,27.50
2019-05-14T14:24:19.507Z,27.50
2019-05-14T14:26:50.991Z,27.50
2019-05-14T14:29:23.015Z,27.40
2019-05-14T14:31:55.184Z,27.40
2019-05-14T14:34:29.139Z,27.40
2019-05-14T14:37:01.926Z,27.40
2019-05-14T14:39:34.311Z,27.30
2019-05-14T14:42:06.475Z,27.30
2019-05-14T14:44:39.313Z,27.30
2019-05-14T14:47:11.798Z,27.30
2019-05-14T14:49:44.383Z,27.30
2019-05-14T14:52:19.705Z,27.30
2019-05-14T14:54:50.381Z,27.30
2019-05-14T14:57:23.419Z,27.30
2019-05-14T14:59:56.327Z,27.30
2019-05-14T15:02:29.003Z,27.30
2019-05-14T15:05:01.306Z,27.30
2019-05-14T15:07:33.019Z,27.30
2019-05-14T15:10:08.696Z,27.30
2019-05-14T15:12:40.538Z,27.20
2019-05-14T15:15:13.837Z,27.20
2019-05-14T15:17:48.363Z,27.20
2019-05-14T15:20:19.899Z,27.10
2019-05-14T15:22:51.826Z,27.20
2019-05-14T15:25:23.840Z,27.20
2019-05-14T15:27:58.322Z,27.10
2019-05-14T15:30:29.830Z,27.10
2019-05-14T15:33:02.389Z,27.10
2019-05-14T15:35:34.536Z,27.10
2019-05-14T15:38:11.124Z,27.10
2019-05-14T15:40:40.598Z,27.10
2019-05-14T15:43:12.804Z,27.00
2019-05-14T15:45:44.922Z,27.00
2019-05-14T15:48:19.673Z,27.00
2019-05-14T15:50:50.959Z,27.00
2019-05-14T15:53:23.146Z,27.00
2019-05-14T15:55:55.187Z,27.00
2019-05-14T15:58:30.536Z,27.00
2019-05-14T16:01:03.057Z,27.00
2019-05-14T16:03:34.986Z,27.00
2019-05-14T16:06:08.961Z,27.00
2019-05-14T16:08:40.915Z,26.90
2019-05-14T16:11:13.258Z,26.90
2019-05-14T16:13:45.592Z,26.90
2019-05-14T16:16:19.499Z,26.90
2019-05-14T16:18:51.905Z,26.90
2019-05-14T16:21:24.075Z,26.90
2019-05-14T16:23:58.700Z,26.90
2019-05-14T16:26:29.935Z,26.90
2019-05-14T16:29:02.911Z,26.90
2019-05-14T16:31:37.344Z,26.90
2019-05-14T16:34:09.931Z,26.90
2019-05-14T16:36:42.132Z,26.90
2019-05-14T16:39:14.420Z,26.90
2019-05-14T16:41:49.050Z,26.90
2019-05-14T16:44:21.646Z,26.90
2019-05-14T16:46:53.587Z,26.90
2019-05-14T16:49:25.829Z,26.80
2019-05-14T16:51:59.542Z,26.80
2019-05-14T16:54:32.400Z,26.80
2019-05-14T16:57:10.691Z,26.80
2019-05-14T16:59:40.130Z,26.80
2019-05-14T17:02:12.263Z,26.80
2019-05-14T17:04:48.330Z,26.80
2019-05-14T17:07:20.543Z,26.80
2019-05-14T17:09:52.682Z,26.80
2019-05-14T17:12:24.718Z,26.80
2019-05-14T17:14:58.688Z,26.80
2019-05-14T17:17:30.217Z,26.80
2019-05-14T17:20:24.217Z,26.80
2019-05-14T17:22:55.141Z,26.80
2019-05-14T17:25:30.345Z,26.80
2019-05-14T17:28:01.125Z,26.80
2019-05-14T17:30:33.508Z,26.80
2019-05-14T17:33:05.538Z,26.80
2019-05-14T17:35:38.992Z,26.80
2019-05-14T17:38:11.643Z,26.80
2019-05-14T17:40:43.707Z,26.80
2019-05-14T17:43:16.035Z,26.80
2019-05-14T17:45:48.354Z,26.80
2019-05-14T17:48:20.222Z,26.80
2019-05-14T17:50:52.278Z,26.80
2019-05-14T17:53:24.206Z,26.80
2019-05-14T17:55:59.141Z,26.80
2019-05-14T17:58:31.191Z,26.80
2019-05-14T18:01:04.095Z,26.80
2019-05-14T18:03:36.384Z,26.80
2019-05-14T18:06:09.383Z,26.80
2019-05-14T18:08:41.580Z,26.80
2019-05-14T18:11:13.790Z,26.80
2019-05-14T18:13:48.283Z,26.80
2019-05-14T18:16:19.432Z,26.80
2019-05-14T18:18:51.851Z,26.80
2019-05-14T18:21:23.994Z,26.80
2019-05-14T18:24:02.361Z,26.80
2019-05-14T18:26:34.417Z,26.80
2019-05-14T18:29:08.790Z,26.80
2019-05-14T18:31:45.235Z,26.80
2019-05-14T18:34:18.968Z,26.80
2019-05-14T18:36:50.843Z,26.90
2019-05-14T18:39:23.032Z,26.90
2019-05-14T18:41:54.945Z,27.00
2019-05-14T18:44:28.442Z,27.00
2019-05-14T18:47:00.708Z,27.00
2019-05-14T18:49:33.050Z,27.00
2019-05-14T18:52:05.373Z,27.00
2019-05-14T18:54:38.761Z,27.00
2019-05-14T18:57:12.122Z,27.00
2019-05-14T18:59:44.848Z,27.00
2019-05-14T19:02:18.475Z,27.00
2019-05-14T19:04:51.408Z,27.00
2019-05-14T19:07:23.376Z,27.00
2019-05-14T19:09:55.254Z,27.00
2019-05-14T19:12:28.953Z,26.90
2019-05-14T19:15:01.276Z,26.90
2019-05-14T19:17:33.267Z,26.90
2019-05-14T19:20:08.427Z,26.80
2019-05-14T19:22:40.495Z,26.80
2019-05-14T19:25:14.442Z,26.80
2019-05-14T19:27:48.789Z,26.80
2019-05-14T19:30:21.100Z,26.80
2019-05-14T19:32:53.023Z,26.80
2019-05-14T19:35:25.093Z,26.80
2019-05-14T19:37:59.461Z,26.80
2019-05-14T19:40:31.527Z,26.80
2019-05-14T19:43:03.755Z,26.80
2019-05-14T19:45:36.064Z,26.80
2019-05-14T19:48:08.255Z,26.70
2019-05-14T19:50:40.266Z,26.70
2019-05-14T19:53:12.315Z,26.70
2019-05-14T19:55:44.942Z,26.70
2019-05-14T19:58:20.084Z,26.70
2019-05-14T20:00:51.101Z,26.70
2019-05-14T20:03:42.080Z,26.60
2019-05-14T20:06:14.789Z,26.60
2019-05-14T20:08:48.261Z,26.60
2019-05-14T20:11:20.746Z,26.50
2019-05-14T20:13:53.223Z,26.50
2019-05-14T20:16:28.384Z,26.40
2019-05-14T20:18:59.424Z,26.40
2019-05-14T20:21:31.561Z,26.50
2019-05-14T20:24:03.902Z,26.50
2019-05-14T20:26:36.049Z,26.50
2019-05-14T20:29:08.752Z,26.50
2019-05-14T20:31:41.283Z,26.50
2019-05-14T20:34:13.503Z,26.50
2019-05-14T20:36:45.620Z,26.50
2019-05-14T20:39:18.359Z,26.50
2019-05-14T20:41:50.360Z,26.50
2019-05-14T20:44:22.404Z,26.50
2019-05-14T20:46:55.143Z,26.50
2019-05-14T20:49:28.433Z,26.50
2019-05-14T20:52:01.040Z,26.50
2019-05-14T20:54:33.058Z,26.50
2019-05-14T20:57:22.384Z,26.50
2019-05-14T20:59:39.196Z,26.60
2019-05-14T21:02:11.337Z,26.60
2019-05-14T21:04:43.369Z,26.60
2019-05-14T21:07:16.590Z,26.50
2019-05-14T21:09:49.219Z,26.50
2019-05-14T21:12:21.349Z,26.50
2019-05-14T21:14:53.989Z,26.50
2019-05-14T21:17:28.110Z,26.50
2019-05-14T21:19:59.674Z,26.50
2019-05-14T21:22:31.803Z,26.50
2019-05-14T21:25:03.692Z,26.50
2019-05-14T21:27:43.872Z,26.50
2019-05-14T21:30:11.349Z,26.40
2019-05-14T21:32:43.554Z,26.40
2019-05-14T21:35:15.493Z,26.40
2019-05-14T21:37:48.576Z,26.40
2019-05-14T21:40:21.759Z,26.40
2019-05-14T21:42:53.585Z,26.40
2019-05-14T21:45:25.992Z,26.40
2019-05-14T21:47:59.440Z,26.40
2019-05-14T21:50:31.424Z,26.40
2019-05-14T21:53:03.729Z,26.40
2019-05-14T21:55:38.601Z,26.40
2019-05-14T21:58:11.910Z,26.40
2019-05-14T22:01:03.780Z,26.40
2019-05-14T22:03:35.769Z,26.40
2019-05-14T22:06:08.833Z,26.40
2019-05-14T22:08:42.356Z,26.50
2019-05-14T22:11:15.071Z,26.50
2019-05-14T22:13:49.443Z,26.40
2019-05-14T22:16:20.804Z,26.50
2019-05-14T22:18:52.707Z,26.40
2019-05-14T22:21:25.237Z,26.50
2019-05-14T22:23:58.894Z,26.50
2019-05-14T22:26:30.939Z,26.50
2019-05-14T22:29:03.018Z,26.50
2019-05-14T22:31:35.512Z,26.50
2019-05-14T22:34:08.914Z,26.50
2019-05-14T22:36:42.035Z,26.50
2019-05-14T22:39:14.289Z,26.40
2019-05-14T22:41:47.526Z,26.40
2019-05-14T22:44:19.604Z,26.50
2019-05-14T22:46:51.543Z,26.50
2019-05-14T22:49:24.144Z,26.40
2019-05-14T22:51:55.863Z,26.40
2019-05-14T22:54:29.062Z,26.40
2019-05-14T22:57:03.290Z,26.40
2019-05-14T22:59:35.260Z,26.40
2019-05-14T23:02:08.449Z,26.40
2019-05-14T23:04:42.972Z,26.40
2019-05-14T23:07:15.029Z,26.40
2019-05-14T23:09:48.268Z,26.40
2019-05-14T23:12:20.451Z,26.40
2019-05-14T23:14:52.469Z,26.40
2019-05-14T23:17:24.619Z,26.40
2019-05-14T23:19:58.083Z,26.50
2019-05-14T23:22:30.313Z,26.50
2019-05-14T23:25:02.467Z,26.60
2019-05-14T23:27:35.515Z,26.60
2019-05-14T23:30:09.698Z,26.60
2019-05-14T23:32:42.071Z,26.60
2019-05-14T23:35:14.565Z,26.70
2019-05-14T23:37:48.919Z,26.70
2019-05-14T23:40:20.807Z,26.80
2019-05-14T23:42:53.065Z,26.80
2019-05-14T23:45:25.069Z,26.80
2019-05-14T23:47:59.805Z,26.80
2019-05-14T23:50:32.252Z,26.90
2019-05-14T23:53:04.741Z,26.90
2019-05-14T23:55:38.525Z,27.00
2019-05-14T23:58:10.858Z,27.00
